| time (UTC) | temp F | wind direction | speed MPH | gust MPH | rain 1hr in | rain 24hr in | rain mn in | humidity % | barometer mb |
| 20260902071404 | 73 | 0 | 0.0 | 0.0 | 0.00 | 0.05 | 0.05 | 90 | 1021.4 |
| 20260902070903 | 73 | 0 | 0.0 | 0.0 | 0.00 | 0.05 | 0.05 | 90 | 1021.3 |
| 20260902070404 | 73 | 0 | 0.0 | 0.0 | 0.00 | 0.05 | 0.05 | 90 | 1021.3 |
| 20260902065904 | 73 | 0 | 0.0 | 0.0 | 0.00 | 0.05 | 0.05 | 90 | 1021.3 |
| 20260902064904 | 73 | 0 | 0.0 | 0.0 | 0.00 | 0.05 | 0.05 | 90 | 1021.3 |
| 20260902064404 | 73 | 0 | 0.0 | 0.0 | 0.00 | 0.05 | 0.05 | 90 | 1021.2 |
| 20260902063904 | 73 | 0 | 0.0 | 0.0 | 0.00 | 0.05 | 0.05 | 90 | 1021.2 |
| 20260902063404 | 73 | 0 | 0.0 | 0.0 | 0.00 | 0.05 | 0.05 | 90 | 1021.2 |
| 20260902062903 | 73 | 0 | 0.0 | 0.0 | 0.00 | 0.05 | 0.05 | 90 | 1021.3 |
| 20260902062404 | 73 | 0 | 0.0 | 0.0 | 0.00 | 0.05 | 0.05 | 90 | 1021.3 |
| 20260902061904 | 73 | 0 | 0.0 | 0.0 | 0.00 | 0.05 | 0.05 | 90 | 1021.3 |
| 20260902061405 | 73 | 0 | 0.0 | 0.0 | 0.00 | 0.05 | 0.05 | 90 | 1021.2 |
| 20260902060904 | 73 | 0 | 0.0 | 0.0 | 0.00 | 0.05 | 0.05 | 90 | 1021.2 |
| 20260902060404 | 73 | 0 | 0.0 | 0.0 | 0.00 | 0.05 | 0.05 | 90 | 1021.3 |
| 20260902055904 | 73 | 0 | 0.0 | 0.0 | 0.00 | 0.05 | 0.05 | 90 | 1021.2 |
| 20260902055403 | 73 | 0 | 0.0 | 0.0 | 0.00 | 0.05 | 0.05 | 90 | 1021.2 |
| 20260902054904 | 73 | 0 | 0.0 | 0.0 | 0.00 | 0.05 | 0.05 | 90 | 1021.1 |
| 20260902053904 | 73 | 0 | 0.0 | 0.0 | 0.00 | 0.05 | 0.05 | 90 | 1021.2 |
| 20260902053404 | 73 | 0 | 0.0 | 0.0 | 0.00 | 0.05 | 0.05 | 90 | 1021.3 |
| 20260902052404 | 73 | 0 | 0.0 | 0.0 | 0.00 | 0.05 | 0.05 | 90 | 1021.2 |
| 20260902051904 | 73 | 0 | 0.0 | 0.0 | 0.00 | 0.05 | 0.05 | 90 | 1021.2 |
| 20260902050904 | 73 | 0 | 0.0 | 0.0 | 0.00 | 0.05 | 0.05 | 90 | 1021.1 |
| 20260902050404 | 73 | 0 | 0.0 | 0.0 | 0.00 | 0.05 | 0.05 | 90 | 1021.1 |
| 20260902045904 | 73 | 0 | 0.0 | 0.0 | 0.00 | 0.05 | 0.05 | 90 | 1021.1 |
| 20260902044904 | 73 | 0 | 0.0 | 0.0 | 0.00 | 0.05 | 0.05 | 90 | 1021.1 |
| 20260902044404 | 73 | 0 | 0.0 | 0.0 | 0.00 | 0.05 | 0.05 | 90 | 1021.1 |
| 20260902043903 | 73 | 0 | 0.0 | 0.0 | 0.00 | 0.05 | 0.05 | 90 | 1021.0 |
| 20260902043403 | 73 | 0 | 0.0 | 0.0 | 0.00 | 0.05 | 0.05 | 90 | 1020.9 |
| 20260902042903 | 73 | 0 | 0.0 | 0.0 | 0.00 | 0.05 | 0.05 | 90 | 1020.9 |
| 20260902042403 | 73 | 0 | 0.0 | 0.0 | 0.00 | 0.05 | 0.05 | 90 | 1020.8 |
| 20260902041904 | 73 | 0 | 0.0 | 0.0 | 0.00 | 0.05 | 0.05 | 90 | 1020.9 |
| 20260902040904 | 73 | 0 | 0.0 | 0.0 | 0.00 | 0.05 | 0.05 | 90 | 1020.9 |
| 20260902040404 | 73 | 0 | 0.0 | 0.0 | 0.00 | 0.05 | 0.05 | 90 | 1020.8 |
| 20260902035903 | 73 | 0 | 0.0 | 0.0 | 0.00 | 0.05 | 0.05 | 90 | 1020.7 |
| 20260902035404 | 73 | 0 | 0.0 | 0.0 | 0.00 | 0.05 | 0.05 | 90 | 1020.8 |
| 20260902034904 | 73 | 0 | 0.0 | 0.0 | 0.00 | 0.05 | 0.05 | 90 | 1020.7 |
| 20260902034404 | 73 | 0 | 0.0 | 0.0 | 0.00 | 0.05 | 0.05 | 90 | 1020.7 |
| 20260902033903 | 73 | 0 | 0.0 | 0.0 | 0.00 | 0.05 | 0.05 | 90 | 1020.6 |
| 20260902033403 | 73 | 2 | 0.0 | 0.0 | 0.00 | 0.05 | 0.05 | 90 | 1020.5 |
| 20260902032904 | 73 | 44 | 0.0 | 1.0 | 0.00 | 0.05 | 0.05 | 90 | 1020.5 |
| 20260902032404 | 73 | 44 | 0.0 | 1.0 | 0.00 | 0.05 | 0.05 | 90 | 1020.6 |
| 20260902031904 | 73 | 2 | 0.0 | 2.0 | 0.00 | 0.05 | 0.05 | 90 | 1020.5 |
| 20260902031404 | 73 | 356 | 0.0 | 3.0 | 0.00 | 0.05 | 0.05 | 90 | 1020.5 |
| 20260902030904 | 73 | 23 | 1.0 | 3.0 | 0.00 | 0.05 | 0.05 | 90 | 1020.5 |
| 20260902025904 | 73 | 16 | 1.0 | 3.0 | 0.00 | 0.05 | 0.05 | 90 | 1020.4 |
| 20260902025404 | 73 | 26 | 1.0 | 3.0 | 0.00 | 0.05 | 0.05 | 91 | 1020.5 |
| 20260902024904 | 73 | 11 | 0.0 | 1.0 | 0.00 | 0.05 | 0.05 | 90 | 1020.4 |
| 20260902024404 | 73 | 43 | 0.0 | 1.0 | 0.00 | 0.05 | 0.05 | 91 | 1020.4 |
| 20260902023403 | 73 | 18 | 0.0 | 2.0 | 0.01 | 0.05 | 0.05 | 90 | 1020.3 |
| 20260902022904 | 73 | 20 | 0.0 | 1.0 | 0.05 | 0.05 | 0.05 | 90 | 1020.4 |
| 20260902022404 | 73 | 21 | 0.0 | 2.0 | 0.05 | 0.05 | 0.05 | 90 | 1020.3 |
| 20260902021904 | 73 | 21 | 1.0 | 5.0 | 0.05 | 0.05 | 0.05 | 90 | 1020.3 |
| 20260902021404 | 73 | 298 | 0.0 | 5.0 | 0.05 | 0.05 | 0.05 | 90 | 1020.4 |
| 20260902015903 | 74 | 213 | 0.0 | 2.0 | 0.05 | 0.05 | 0.05 | 89 | 1020.1 |
| 20260902015404 | 74 | 137 | 0.0 | 6.0 | 0.05 | 0.05 | 0.05 | 88 | 1020.0 |
| 20260902014904 | 74 | 109 | 2.0 | 10.0 | 0.05 | 0.05 | 0.05 | 88 | 1020.0 |
| 20260902013903 | 75 | 38 | 5.0 | 12.0 | 0.05 | 0.05 | 0.05 | 86 | 1019.9 |
| 20260902013404 | 76 | 39 | 6.0 | 12.0 | 0.04 | 0.04 | 0.04 | 85 | 1019.8 |
| 20260902012404 | 78 | 26 | 1.0 | 6.0 | 0.00 | 0.00 | 0.00 | 77 | 1020.0 |
| 20260902011904 | 78 | 49 | 0.0 | 6.0 | 0.00 | 0.00 | 0.00 | 77 | 1020.0 |
| 20260902010903 | 78 | 55 | 0.0 | 3.0 | 0.00 | 0.00 | 0.00 | 78 | 1020.0 |
| 20260902010403 | 78 | 60 | 1.0 | 5.0 | 0.00 | 0.00 | 0.00 | 79 | 1020.1 |
| 20260902005904 | 78 | 23 | 2.0 | 5.0 | 0.00 | 0.00 | 0.00 | 79 | 1020.2 |
| 20260902004904 | 78 | 9 | 0.0 | 1.0 | 0.00 | 0.00 | 0.00 | 79 | 1020.2 |
| 20260902003904 | 77 | 240 | 0.0 | 0.0 | 0.00 | 0.00 | 0.00 | 80 | 1020.0 |
| 20260902003404 | 77 | 240 | 0.0 | 0.0 | 0.00 | 0.00 | 0.00 | 80 | 1019.9 |
| 20260902002404 | 77 | 255 | 0.0 | 1.0 | 0.00 | 0.00 | 0.00 | 80 | 1020.0 |
| 20260902001903 | 77 | 352 | 0.0 | 0.0 | 0.00 | 0.00 | 0.00 | 79 | 1020.0 |
| 20260902001403 | 77 | 352 | 0.0 | 0.0 | 0.00 | 0.00 | 0.00 | 78 | 1020.0 |
| 20260902000903 | 77 | 352 | 0.0 | 0.0 | 0.00 | 0.00 | 0.00 | 78 | 1020.0 |
| 20260902000403 | 77 | 352 | 0.0 | 0.0 | 0.00 | 0.00 | 0.00 | 78 | 1019.9 |
| 20260901235904 | 77 | 352 | 0.0 | 0.0 | 0.00 | 0.00 | 0.00 | 77 | 1019.9 |
| 20260901235404 | 78 | 352 | 0.0 | 0.0 | 0.00 | 0.00 | 0.00 | 77 | 1019.8 |
| 20260901234404 | 78 | 352 | 0.0 | 0.0 | 0.00 | 0.00 | 0.00 | 77 | 1019.8 |
| 20260901233903 | 78 | 352 | 0.0 | 2.0 | 0.00 | 0.00 | 0.00 | 77 | 1019.7 |
| 20260901233403 | 78 | 352 | 0.0 | 2.0 | 0.00 | 0.00 | 0.00 | 78 | 1019.7 |
| 20260901232904 | 78 | 321 | 0.0 | 0.0 | 0.00 | 0.00 | 0.00 | 78 | 1019.6 |
| 20260901231904 | 78 | 316 | 0.0 | 0.0 | 0.00 | 0.00 | 0.00 | 78 | 1019.6 |
| 20260901231404 | 78 | 316 | 0.0 | 0.0 | 0.00 | 0.00 | 0.00 | 78 | 1019.6 |
| 20260901230904 | 78 | 333 | 0.0 | 0.0 | 0.00 | 0.00 | 0.00 | 78 | 1019.6 |
| 20260901225403 | 78 | 333 | 0.0 | 0.0 | 0.00 | 0.00 | 0.00 | 79 | 1019.7 |
| 20260901224404 | 78 | 17 | 0.0 | 0.0 | 0.00 | 0.00 | 0.00 | 79 | 1019.6 |
| 20260901223904 | 78 | 17 | 0.0 | 0.0 | 0.00 | 0.00 | 0.00 | 79 | 1019.5 |
| 20260901223404 | 78 | 17 | 0.0 | 0.0 | 0.00 | 0.00 | 0.00 | 79 | 1019.5 |
| 20260901222904 | 78 | 17 | 0.0 | 0.0 | 0.00 | 0.00 | 0.00 | 79 | 1019.5 |
| 20260901221903 | 78 | 17 | 0.0 | 1.0 | 0.00 | 0.00 | 0.00 | 79 | 1019.5 |
| 20260901221404 | 78 | 17 | 0.0 | 1.0 | 0.00 | 0.00 | 0.00 | 78 | 1019.6 |
| 20260901220903 | 78 | 17 | 0.0 | 1.0 | 0.00 | 0.00 | 0.00 | 78 | 1019.5 |
| 20260901215903 | 78 | 16 | 0.0 | 1.0 | 0.00 | 0.00 | 0.00 | 78 | 1019.5 |
| 20260901215403 | 78 | 17 | 0.0 | 1.0 | 0.00 | 0.00 | 0.00 | 77 | 1019.6 |
| 20260901214404 | 78 | 35 | 0.0 | 1.0 | 0.00 | 0.00 | 0.00 | 77 | 1019.6 |
| 20260901213903 | 78 | 38 | 0.0 | 0.0 | 0.00 | 0.00 | 0.00 | 77 | 1019.6 |
| 20260901213404 | 78 | 38 | 0.0 | 0.0 | 0.00 | 0.00 | 0.00 | 77 | 1019.6 |
| 20260901212904 | 78 | 38 | 0.0 | 0.0 | 0.00 | 0.00 | 0.00 | 76 | 1019.5 |
| 20260901212404 | 78 | 38 | 0.0 | 0.0 | 0.00 | 0.00 | 0.00 | 76 | 1019.5 |
| 20260901211904 | 78 | 38 | 0.0 | 0.0 | 0.00 | 0.00 | 0.00 | 75 | 1019.4 |
| 20260901211404 | 78 | 38 | 0.0 | 0.0 | 0.00 | 0.00 | 0.00 | 75 | 1019.5 |
| 20260901210404 | 78 | 38 | 0.0 | 0.0 | 0.00 | 0.00 | 0.00 | 74 | 1019.4 |
| 20260901205903 | 78 | 38 | 0.0 | 0.0 | 0.00 | 0.00 | 0.00 | 74 | 1019.4 |
| 20260901205403 | 78 | 38 | 0.0 | 0.0 | 0.00 | 0.00 | 0.00 | 74 | 1019.3 |
| 20260901204904 | 78 | 38 | 0.0 | 0.0 | 0.00 | 0.00 | 0.00 | 74 | 1019.4 |
| 20260901203904 | 78 | 38 | 0.0 | 0.0 | 0.00 | 0.00 | 0.00 | 73 | 1019.2 |
| 20260901203404 | 79 | 38 | 0.0 | 0.0 | 0.00 | 0.00 | 0.00 | 73 | 1019.2 |
| 20260901202903 | 79 | 38 | 0.0 | 0.0 | 0.00 | 0.00 | 0.00 | 73 | 1019.2 |
| 20260901202403 | 79 | 38 | 0.0 | 0.0 | 0.00 | 0.00 | 0.00 | 73 | 1019.2 |
| 20260901201904 | 79 | 38 | 0.0 | 0.0 | 0.00 | 0.00 | 0.00 | 73 | 1019.2 |
| 20260901201405 | 79 | 38 | 0.0 | 0.0 | 0.00 | 0.00 | 0.00 | 72 | 1019.1 |
| 20260901200403 | 79 | 38 | 0.0 | 0.0 | 0.00 | 0.00 | 0.00 | 73 | 1019.2 |
| 20260901195903 | 79 | 38 | 0.0 | 0.0 | 0.00 | 0.00 | 0.00 | 73 | 1019.3 |
| 20260901195403 | 79 | 38 | 0.0 | 0.0 | 0.00 | 0.00 | 0.00 | 73 | 1019.2 |
| 20260901194904 | 79 | 38 | 0.0 | 0.0 | 0.00 | 0.00 | 0.00 | 73 | 1019.1 |
| 20260901194404 | 79 | 38 | 0.0 | 0.0 | 0.00 | 0.00 | 0.00 | 72 | 1019.1 |
| 20260901193904 | 79 | 38 | 0.0 | 0.0 | 0.00 | 0.00 | 0.00 | 72 | 1019.1 |
| 20260901193403 | 79 | 38 | 0.0 | 0.0 | 0.00 | 0.00 | 0.00 | 72 | 1019.1 |
| 20260901192903 | 79 | 38 | 0.0 | 0.0 | 0.00 | 0.00 | 0.00 | 73 | 1019.1 |
| 20260901192403 | 79 | 38 | 0.0 | 0.0 | 0.00 | 0.00 | 0.00 | 72 | 1019.1 |
| 20260901191903 | 79 | 38 | 0.0 | 1.0 | 0.00 | 0.00 | 0.00 | 72 | 1019.1 |
| 20260901191404 | 79 | 38 | 0.0 | 1.0 | 0.00 | 0.00 | 0.00 | 72 | 1019.1 |
| 20260901190904 | 79 | 38 | 0.0 | 1.0 | 0.00 | 0.00 | 0.00 | 72 | 1019.0 |
| 20260901185904 | 79 | 62 | 0.0 | 1.0 | 0.00 | 0.00 | 0.00 | 73 | 1018.9 |
| 20260901185404 | 79 | 68 | 0.0 | 1.0 | 0.00 | 0.00 | 0.00 | 74 | 1018.9 |
| 20260901184903 | 80 | 69 | 1.0 | 1.0 | 0.00 | 0.00 | 0.00 | 73 | 1018.9 |
| 20260901184404 | 80 | 69 | 0.0 | 2.0 | 0.00 | 0.00 | 0.00 | 73 | 1018.8 |
| 20260901183904 | 80 | 69 | 0.0 | 2.0 | 0.00 | 0.00 | 0.00 | 73 | 1018.6 |
| 20260901183403 | 80 | 44 | 1.0 | 2.0 | 0.00 | 0.00 | 0.00 | 73 | 1018.4 |
| 20260901182903 | 80 | 69 | 0.0 | 2.0 | 0.00 | 0.00 | 0.00 | 73 | 1018.4 |
| 20260901182403 | 80 | 69 | 1.0 | 2.0 | 0.00 | 0.00 | 0.00 | 73 | 1018.4 |
| 20260901181903 | 80 | 88 | 0.0 | 1.0 | 0.00 | 0.00 | 0.00 | 73 | 1018.3 |
| 20260901181404 | 80 | 89 | 0.0 | 1.0 | 0.00 | 0.00 | 0.00 | 72 | 1018.1 |
| 20260901180904 | 80 | 89 | 0.0 | 1.0 | 0.00 | 0.00 | 0.00 | 72 | 1017.9 |
| 20260901180404 | 80 | 86 | 0.0 | 0.0 | 0.00 | 0.00 | 0.00 | 72 | 1017.9 |
| 20260901175904 | 80 | 86 | 0.0 | 0.0 | 0.00 | 0.00 | 0.00 | 71 | 1017.8 |
| 20260901175404 | 80 | 86 | 0.0 | 0.0 | 0.00 | 0.00 | 0.00 | 71 | 1017.8 |
| 20260901174904 | 80 | 88 | 0.0 | 1.0 | 0.00 | 0.00 | 0.00 | 71 | 1017.7 |
| 20260901174403 | 81 | 88 | 0.0 | 1.0 | 0.00 | 0.00 | 0.00 | 71 | 1017.7 |
| 20260901173903 | 81 | 88 | 0.0 | 0.0 | 0.00 | 0.00 | 0.00 | 71 | 1017.6 |
| 20260901173403 | 81 | 88 | 0.0 | 0.0 | 0.00 | 0.00 | 0.00 | 70 | 1017.4 |
| 20260901172903 | 81 | 88 | 0.0 | 1.0 | 0.00 | 0.00 | 0.00 | 70 | 1017.5 |
| 20260901172404 | 82 | 88 | 0.0 | 1.0 | 0.00 | 0.00 | 0.00 | 70 | 1017.5 |
| 20260901171904 | 82 | 90 | 0.0 | 2.0 | 0.00 | 0.00 | 0.00 | 70 | 1017.7 |
| 20260901171404 | 82 | 91 | 0.0 | 3.0 | 0.00 | 0.00 | 0.00 | 69 | 1017.6 |
| 20260901170903 | 82 | 50 | 0.0 | 3.0 | 0.00 | 0.00 | 0.00 | 69 | 1017.7 |
| 20260901165904 | 83 | 215 | 0.0 | 2.0 | 0.00 | 0.00 | 0.00 | 67 | 1017.7 |
| 20260901165404 | 84 | 175 | 0.0 | 3.0 | 0.00 | 0.00 | 0.00 | 67 | 1017.8 |
| 20260901164904 | 84 | 136 | 0.0 | 3.0 | 0.00 | 0.00 | 0.00 | 66 | 1017.8 |
| 20260901164403 | 85 | 165 | 0.0 | 3.0 | 0.00 | 0.00 | 0.00 | 65 | 1017.8 |
| 20260901163903 | 85 | 208 | 0.0 | 2.0 | 0.00 | 0.00 | 0.00 | 65 | 1017.6 |
| 20260901163403 | 86 | 120 | 0.0 | 2.0 | 0.00 | 0.00 | 0.00 | 65 | 1017.6 |
| 20260901162904 | 86 | 210 | 0.0 | 3.0 | 0.00 | 0.00 | 0.00 | 64 | 1017.7 |
| 20260901162403 | 86 | 222 | 2.0 | 7.0 | 0.00 | 0.00 | 0.00 | 64 | 1017.6 |
| 20260901161904 | 87 | 194 | 1.0 | 7.0 | 0.00 | 0.00 | 0.00 | 63 | 1017.5 |
| 20260901161403 | 87 | 209 | 2.0 | 7.0 | 0.00 | 0.00 | 0.00 | 62 | 1017.5 |
| 20260901160904 | 87 | 208 | 2.0 | 7.0 | 0.00 | 0.00 | 0.00 | 61 | 1017.5 |
| 20260901160403 | 88 | 213 | 2.0 | 7.0 | 0.00 | 0.00 | 0.00 | 60 | 1017.3 |
| 20260901154903 | 89 | 183 | 2.0 | 7.0 | 0.00 | 0.00 | 0.00 | 58 | 1017.3 |
| 20260901154403 | 89 | 178 | 2.0 | 7.0 | 0.00 | 0.00 | 0.00 | 58 | 1017.3 |
| 20260901153404 | 90 | 205 | 3.0 | 6.0 | 0.00 | 0.00 | 0.00 | 57 | 1017.3 |
| 20260901152904 | 90 | 208 | 3.0 | 6.0 | 0.00 | 0.00 | 0.00 | 58 | 1017.3 |
| 20260901152404 | 90 | 179 | 3.0 | 8.0 | 0.00 | 0.00 | 0.00 | 58 | 1017.3 |
| 20260901151905 | 90 | 208 | 3.0 | 8.0 | 0.00 | 0.00 | 0.00 | 58 | 1017.3 |
| 20260901151403 | 90 | 198 | 2.0 | 7.0 | 0.00 | 0.00 | 0.00 | 57 | 1017.4 |
| 20260901150904 | 91 | 193 | 3.0 | 7.0 | 0.00 | 0.00 | 0.00 | 57 | 1017.4 |
| 20260901150404 | 91 | 208 | 3.0 | 8.0 | 0.00 | 0.00 | 0.00 | 56 | 1017.3 |
| 20260901145903 | 91 | 210 | 3.0 | 8.0 | 0.00 | 0.00 | 0.00 | 55 | 1017.3 |
| 20260901144403 | 92 | 207 | 3.0 | 6.0 | 0.00 | 0.00 | 0.00 | 54 | 1017.3 |
| 20260901143903 | 92 | 196 | 3.0 | 6.0 | 0.00 | 0.00 | 0.00 | 53 | 1017.3 |
| 20260901143403 | 92 | 211 | 3.0 | 7.0 | 0.00 | 0.00 | 0.00 | 53 | 1017.3 |
| 20260901142903 | 92 | 191 | 1.0 | 7.0 | 0.00 | 0.00 | 0.00 | 54 | 1017.3 |
| 20260901141904 | 92 | 148 | 3.0 | 7.0 | 0.00 | 0.00 | 0.00 | 53 | 1017.3 |
| 20260901141404 | 93 | 205 | 3.0 | 8.0 | 0.00 | 0.00 | 0.00 | 53 | 1017.4 |
| 20260901135904 | 93 | 207 | 1.0 | 9.0 | 0.00 | 0.00 | 0.00 | 51 | 1017.3 |
| 20260901134904 | 93 | 215 | 3.0 | 7.0 | 0.00 | 0.00 | 0.00 | 52 | 1017.4 |
| 20260901133904 | 93 | 206 | 3.0 | 9.0 | 0.00 | 0.00 | 0.00 | 53 | 1017.5 |
| 20260901133404 | 93 | 201 | 3.0 | 9.0 | 0.00 | 0.00 | 0.00 | 52 | 1017.5 |
| 20260901132904 | 93 | 219 | 2.0 | 8.0 | 0.00 | 0.00 | 0.00 | 52 | 1017.6 |
| 20260901132404 | 93 | 213 | 3.0 | 8.0 | 0.00 | 0.00 | 0.00 | 52 | 1017.6 |
| 20260901131904 | 93 | 210 | 2.0 | 7.0 | 0.00 | 0.00 | 0.00 | 53 | 1017.7 |
| 20260901131404 | 92 | 229 | 2.0 | 7.0 | 0.00 | 0.00 | 0.00 | 53 | 1017.7 |
| 20260901130903 | 92 | 235 | 3.0 | 7.0 | 0.00 | 0.00 | 0.00 | 53 | 1017.7 |
| 20260901130404 | 92 | 213 | 2.0 | 7.0 | 0.00 | 0.00 | 0.00 | 53 | 1017.7 |
| 20260901125904 | 93 | 220 | 3.0 | 7.0 | 0.00 | 0.00 | 0.00 | 52 | 1017.8 |
| 20260901125404 | 93 | 225 | 2.0 | 8.0 | 0.00 | 0.00 | 0.00 | 52 | 1017.8 |
| 20260901124904 | 93 | 227 | 2.0 | 8.0 | 0.00 | 0.00 | 0.00 | 52 | 1017.9 |
| 20260901124404 | 93 | 211 | 3.0 | 8.0 | 0.00 | 0.00 | 0.00 | 52 | 1017.8 |
| 20260901123404 | 93 | 232 | 2.0 | 7.0 | 0.00 | 0.00 | 0.00 | 52 | 1017.9 |
| 20260901122904 | 92 | 209 | 2.0 | 7.0 | 0.00 | 0.00 | 0.00 | 52 | 1017.9 |
| 20260901122404 | 93 | 207 | 2.0 | 7.0 | 0.00 | 0.00 | 0.00 | 51 | 1018.0 |
| 20260901121904 | 93 | 220 | 2.0 | 9.0 | 0.00 | 0.00 | 0.00 | 51 | 1018.1 |
| 20260901121404 | 92 | 206 | 2.0 | 9.0 | 0.00 | 0.00 | 0.00 | 53 | 1018.2 |
| 20260901120904 | 92 | 232 | 3.0 | 9.0 | 0.00 | 0.00 | 0.00 | 52 | 1018.3 |
| 20260901120403 | 92 | 229 | 3.0 | 7.0 | 0.00 | 0.00 | 0.00 | 51 | 1018.4 |
| 20260901115903 | 92 | 223 | 2.0 | 8.0 | 0.00 | 0.00 | 0.00 | 52 | 1018.4 |
| 20260901115403 | 92 | 203 | 3.0 | 8.0 | 0.00 | 0.00 | 0.00 | 53 | 1018.4 |
| 20260901114903 | 92 | 223 | 3.0 | 7.0 | 0.00 | 0.00 | 0.00 | 53 | 1018.5 |
| 20260901114403 | 92 | 250 | 3.0 | 7.0 | 0.00 | 0.00 | 0.00 | 54 | 1018.4 |
| 20260901113903 | 91 | 245 | 2.0 | 7.0 | 0.00 | 0.00 | 0.00 | 56 | 1018.5 |
| 20260901112904 | 91 | 221 | 2.0 | 8.0 | 0.00 | 0.00 | 0.00 | 56 | 1018.5 |
| 20260901111904 | 91 | 228 | 3.0 | 6.0 | 0.00 | 0.00 | 0.00 | 57 | 1018.5 |
| 20260901111404 | 91 | 278 | 2.0 | 7.0 | 0.00 | 0.00 | 0.00 | 57 | 1018.6 |
| 20260901110904 | 92 | 255 | 2.0 | 7.0 | 0.00 | 0.00 | 0.00 | 57 | 1018.6 |
| 20260901110404 | 91 | 198 | 2.0 | 8.0 | 0.00 | 0.00 | 0.00 | 58 | 1018.6 |
| 20260901105404 | 91 | 212 | 2.0 | 8.0 | 0.00 | 0.00 | 0.00 | 59 | 1018.7 |
| 20260901104903 | 91 | 203 | 2.0 | 7.0 | 0.00 | 0.00 | 0.00 | 59 | 1018.7 |
| 20260901104404 | 91 | 172 | 2.0 | 7.0 | 0.00 | 0.00 | 0.00 | 58 | 1018.8 |
| 20260901102904 | 91 | 219 | 3.0 | 7.0 | 0.00 | 0.00 | 0.00 | 56 | 1018.8 |
| 20260901102404 | 91 | 237 | 2.0 | 7.0 | 0.00 | 0.00 | 0.00 | 56 | 1018.8 |
| 20260901101404 | 90 | 195 | 3.0 | 8.0 | 0.00 | 0.00 | 0.00 | 54 | 1019.0 |
| 20260901100904 | 91 | 243 | 3.0 | 8.0 | 0.00 | 0.00 | 0.00 | 54 | 1019.0 |
| 20260901100404 | 91 | 243 | 2.0 | 6.0 | 0.00 | 0.00 | 0.00 | 54 | 1019.1 |
| 20260901095403 | 91 | 259 | 3.0 | 7.0 | 0.00 | 0.00 | 0.00 | 54 | 1019.0 |
| 20260901094404 | 92 | 172 | 2.0 | 7.0 | 0.00 | 0.00 | 0.00 | 53 | 1019.0 |
| 20260901093904 | 92 | 204 | 2.0 | 7.0 | 0.00 | 0.00 | 0.00 | 53 | 1019.0 |
| 20260901093404 | 92 | 191 | 3.0 | 8.0 | 0.00 | 0.00 | 0.00 | 52 | 1018.9 |
| 20260901092904 | 92 | 134 | 2.0 | 8.0 | 0.00 | 0.00 | 0.00 | 50 | 1019.0 |
| 20260901092403 | 92 | 223 | 2.0 | 6.0 | 0.00 | 0.00 | 0.00 | 50 | 1019.0 |
| 20260901091904 | 91 | 214 | 2.0 | 5.0 | 0.00 | 0.00 | 0.00 | 53 | 1019.1 |
| 20260901091404 | 91 | 211 | 2.0 | 7.0 | 0.00 | 0.00 | 0.00 | 54 | 1019.1 |
| 20260901090904 | 90 | 205 | 1.0 | 7.0 | 0.00 | 0.00 | 0.00 | 54 | 1019.2 |
| 20260901090404 | 90 | 231 | 2.0 | 7.0 | 0.00 | 0.00 | 0.00 | 55 | 1019.2 |
| 20260901085403 | 90 | 248 | 1.0 | 7.0 | 0.00 | 0.00 | 0.00 | 55 | 1019.2 |
| 20260901084903 | 90 | 220 | 2.0 | 7.0 | 0.00 | 0.00 | 0.00 | 54 | 1019.1 |
| 20260901084404 | 89 | 231 | 1.0 | 5.0 | 0.00 | 0.00 | 0.00 | 57 | 1019.1 |
| 20260901083904 | 88 | 267 | 0.0 | 5.0 | 0.00 | 0.00 | 0.00 | 58 | 1019.1 |
| 20260901083404 | 88 | 326 | 2.0 | 5.0 | 0.00 | 0.00 | 0.00 | 57 | 1019.1 |
| 20260901082904 | 88 | 178 | 1.0 | 3.0 | 0.00 | 0.00 | 0.00 | 58 | 1019.1 |
| 20260901082404 | 87 | 272 | 0.0 | 3.0 | 0.00 | 0.00 | 0.00 | 59 | 1019.1 |
| 20260901081904 | 88 | 270 | 1.0 | 3.0 | 0.00 | 0.00 | 0.00 | 58 | 1019.1 |
| 20260901081404 | 87 | 243 | 1.0 | 3.0 | 0.00 | 0.00 | 0.00 | 60 | 1019.0 |
| 20260901080403 | 87 | 275 | 1.0 | 3.0 | 0.00 | 0.00 | 0.00 | 61 | 1019.2 |
| 20260901075903 | 87 | 285 | 1.0 | 3.0 | 0.00 | 0.00 | 0.00 | 62 | 1019.2 |
| 20260901075404 | 87 | 286 | 1.0 | 3.0 | 0.00 | 0.00 | 0.00 | 63 | 1019.1 |
| 20260901074403 | 89 | 198 | 1.0 | 3.0 | 0.00 | 0.00 | 0.00 | 61 | 1019.1 |
| 20260901073903 | 88 | 171 | 1.0 | 3.0 | 0.00 | 0.00 | 0.00 | 62 | 1019.1 |
| 20260901073404 | 87 | 206 | 1.0 | 2.0 | 0.00 | 0.00 | 0.00 | 65 | 1019.2 |
| 20260901072404 | 74 | 0 | 0.0 | 0.0 | 0.00 | 0.00 | 0.00 | 74 | 1019.1 |